Detall de PIREP

Printer-friendly versionPDF version

[2010/07/24 21:49:00]
Flight IATA:CT2211
Pilot Number:026
Company ICAO:CAT
Aircraft Type:DC85/A
PAX:136
Departing Airport: LFPG
Destination Airport: LFMP
Alternate Airport:LFBO
Online: VATSIM
Route:ERIXU UN860 ETAMO UN855 OLRAK UZ131 BADAM UY27 SIJAN
Flight Level:FL330
No Slew and time accel
No pause
Crash detect
Detect pilot in Cockpit between each 30 and 45 minutes
21:49 Zero fuel Weight: 185726 Lbs, Fuel Weight: 28013 Lbs
21:49 VATSIM:LFPG 242130Z 05003KT 020V080 CAVOK 20/10 Q1021 NOSIG
21:49 VATSIM:LFMP 242130Z AUTO 30016KT 9999NDV NSC 23/10 Q1019
21:49 Parking Brakes off
21:56 VOICE CATALONIAN / IATA CT2211
22:06 Take-off
22:06 Take off Weight: 212280 Lbs
22:06 Wind: 188º @ 003 Knots Heading: 086º
22:06 POS N48º 59´ 49´´ E002º 34´ 48´´
22:06 Flaps:2 at 184 Knots
22:06 Gear Up: 190 Knots
22:07 Flaps:1 at 218 Knots
22:09 Flaps:0 at 216 Knots
22:18 TOC
22:18
Fuel Weight: 22441 Lb
22:21 Wind:121º@008 Knots Heading: 173º Ground Speed: 469 Knots Altitude 33221 ft
22:36 Wind:121º@008 Knots Heading: 157º Ground Speed: 463 Knots Altitude 33234 ft
22:46 TOD
22:46 Fuel Weight: 16208 Lb
22:51 Wind:351º@008 Knots Heading: 160º Ground Speed: 467 Knots Altitude 25761 ft
23:06 Wind:299º@028 Knots Heading: 192º Ground Speed: 283 Knots Altitude 3786 ft
23:13 Flaps:1 at 186 Knots
23:13 Gear Down: 182 Knots
23:14 Flaps:2 at 172 Knots
23:14 Flaps:3 at 181 Knots
23:15 Flaps:4 at 159 Knots
23:15 Flaps:5 at 144 Knots
23:16 TouchDown:Rate -573 ft/min Speed: 133 Knots
23:17 VATSIM:LFMP 242300Z AUTO 30017KT 9999NDV NSC 23/11 Q1019
23:17 Land
23:17 Wind:287º@016 Knots
23:17 Heading: 328º
23:17 Flight Duration: 01:11
23:17 Landing Weight: 198179 Lbs
23:17 POS N42º 44´ 48´´ E002º 52´ 04´´
23:21 Parking brakes on
23:21 Block to Block
Duration: 01:32
23:21 Final Fuel: 12006 Lbls
23:21 Spent Fuel: 16007 Lbls
23:21 Flight Length: 448 NM
23:21 TOD Land Length: 166 NM

Exportar CSV

Powered by Drupal - Modified by Danger4k